Time;durP1;ratioP1;P1;durP2;ratioP2;P2;SDS_P1;SDS_P2;PMS_P1;PMS_P2;Temp;Humidity;BMP_temperature;BMP_pressure;BME280_temperature;BME280_humidity;BME280_pressure;Samples;Min_cycle;Max_cycle;Signal;HPM_P1;HPM_P2
2023/08/24 00:00:40;;;;;;;30.70;28.50;;;15.20;99.90;;;;;;6240946;23;20018;-82
2023/08/24 00:03:06;;;;;;;31.25;29.25;;;15.20;99.90;;;;;;6240956;22;20027;-81
2023/08/24 00:05:36;;;;;;;34.25;32.08;;;15.20;99.90;;;;;;6240890;22;20054;-82
2023/08/24 00:08:07;;;;;;;33.70;31.08;;;15.10;99.90;;;;;;6239222;23;20443;-81
2023/08/24 00:10:34;;;;;;;33.90;31.73;;;15.10;99.90;;;;;;6240318;22;20012;-81
2023/08/24 00:13:00;;;;;;;30.58;28.58;;;15.10;99.90;;;;;;6241105;22;20367;-81
2023/08/24 00:15:26;;;;;;;32.33;30.25;;;15.00;99.90;;;;;;6241107;22;20020;-81
2023/08/24 00:17:51;;;;;;;33.55;31.23;;;15.00;99.90;;;;;;6239167;23;20104;-81
2023/08/24 00:20:17;;;;;;;35.38;33.05;;;15.00;99.90;;;;;;6238919;23;20385;-81
2023/08/24 00:22:43;;;;;;;37.83;34.95;;;15.00;99.90;;;;;;6213585;23;20446;-81
2023/08/24 00:25:09;;;;;;;32.40;30.13;;;15.00;99.90;;;;;;6238548;23;20447;-81
2023/08/24 00:27:35;;;;;;;32.47;30.20;;;14.90;99.90;;;;;;6214034;23;20091;-81
2023/08/24 00:30:04;;;;;;;33.25;31.08;;;14.90;99.90;;;;;;6213783;23;20378;-82
2023/08/24 00:32:30;;;;;;;35.55;32.95;;;14.90;99.90;;;;;;6238842;23;20012;-81
2023/08/24 00:34:56;;;;;;;32.30;29.45;;;14.90;99.90;;;;;;6239096;23;20016;-81
2023/08/24 00:37:21;;;;;;;36.70;34.08;;;14.90;99.90;;;;;;6213820;23;20247;-81
2023/08/24 00:39:47;;;;;;;33.30;31.05;;;14.90;99.90;;;;;;6238319;23;20310;-81
2023/08/24 00:42:15;;;;;;;34.30;32.17;;;14.80;99.90;;;;;;6240754;23;20020;-81
2023/08/24 00:44:41;;;;;;;37.95;35.55;;;14.80;99.90;;;;;;6213750;23;20066;-81
2023/08/24 00:47:10;;;;;;;30.10;28.17;;;14.80;99.90;;;;;;6239348;23;20020;-81
2023/08/24 00:49:36;;;;;;;35.70;33.38;;;14.80;99.90;;;;;;6213638;23;20474;-81
2023/08/24 00:52:02;;;;;;;34.30;32.00;;;14.90;99.90;;;;;;6239019;23;20169;-81
2023/08/24 00:54:28;;;;;;;33.22;31.08;;;14.90;99.90;;;;;;6212932;23;20012;-81
2023/08/24 00:56:55;;;;;;;33.42;31.13;;;14.90;99.90;;;;;;6213691;23;20088;-81
2023/08/24 00:59:20;;;;;;;29.90;27.73;;;14.90;99.90;;;;;;6213697;23;20055;-81
2023/08/24 01:01:47;;;;;;;34.13;31.83;;;14.90;99.90;;;;;;6239023;23;20016;-81
2023/08/24 01:04:13;;;;;;;29.45;27.13;;;15.00;99.90;;;;;;6213621;23;20012;-82
2023/08/24 01:06:39;;;;;;;28.10;26.10;;;15.00;99.90;;;;;;6238946;23;20135;-81
2023/08/24 01:09:06;;;;;;;29.70;27.55;;;15.00;99.90;;;;;;6215113;23;20048;-81
2023/08/24 01:11:51;;;;;;;25.70;23.98;;;15.00;99.90;;;;;;6240974;23;20014;-81
2023/08/24 01:14:35;;;;;;;28.73;26.30;;;15.10;99.90;;;;;;6241082;23;20012;-81
2023/08/24 01:17:04;;;;;;;30.13;27.83;;;15.10;99.90;;;;;;6215729;23;20008;-81
2023/08/24 01:19:39;;;;;;;24.55;22.58;;;15.10;99.90;;;;;;6242714;23;20035;-81
2023/08/24 01:22:29;;;;;;;24.08;22.20;;;15.10;99.90;;;;;;6241122;23;20004;-81
2023/08/24 01:25:17;;;;;;;26.17;24.08;;;15.10;99.90;;;;;;6240641;23;20103;-81
2023/08/24 01:27:45;;;;;;;25.88;23.52;;;15.10;99.90;;;;;;6241396;23;20021;-81
2023/08/24 01:30:11;;;;;;;24.30;22.50;;;15.20;99.90;;;;;;6240913;23;20004;-81
2023/08/24 01:32:37;;;;;;;24.48;22.77;;;15.20;99.90;;;;;;6240316;23;20023;-81
2023/08/24 01:35:05;;;;;;;24.65;22.77;;;15.20;99.90;;;;;;6240981;23;20016;-82
2023/08/24 01:37:32;;;;;;;19.73;17.95;;;15.20;99.90;;;;;;6214850;23;20023;-81
2023/08/24 01:40:17;;;;;;;25.52;23.70;;;15.30;99.90;;;;;;6241163;23;20019;-82
2023/08/24 01:42:57;;;;;;;24.00;22.02;;;15.20;99.90;;;;;;6215532;23;20012;-81
2023/08/24 01:45:27;;;;;;;26.77;24.50;;;15.30;99.90;;;;;;6240850;23;20062;-81
2023/08/24 01:47:55;;;;;;;23.50;21.73;;;15.30;99.90;;;;;;6240540;23;20004;-82
2023/08/24 01:50:21;;;;;;;23.30;21.50;;;15.30;99.90;;;;;;6215077;23;20091;-81
2023/08/24 01:52:47;;;;;;;25.42;23.35;;;15.30;99.90;;;;;;6242015;22;20004;-81
2023/08/24 01:55:15;;;;;;;22.13;20.30;;;15.30;99.90;;;;;;6215119;23;20016;-81
2023/08/24 01:57:40;;;;;;;22.50;20.60;;;15.30;99.90;;;;;;6214987;23;20008;-81
2023/08/24 02:00:07;;;;;;;23.05;21.20;;;15.30;99.90;;;;;;6240789;23;20113;-81
2023/08/24 02:02:35;;;;;;;22.35;20.27;;;15.30;99.90;;;;;;6214763;23;20027;-82
2023/08/24 02:05:00;;;;;;;25.85;23.10;;;15.40;99.90;;;;;;6242197;22;20008;-81
2023/08/24 02:07:26;;;;;;;23.35;21.20;;;15.40;99.90;;;;;;6214291;23;20012;-81
2023/08/24 02:09:51;;;;;;;24.25;21.05;;;15.40;99.90;;;;;;6214863;23;20087;-81
2023/08/24 02:12:17;;;;;;;25.23;23.05;;;15.40;99.90;;;;;;6240556;23;20435;-82
2023/08/24 02:14:43;;;;;;;28.58;25.80;;;15.40;99.90;;;;;;6240351;23;20020;-81
2023/08/24 02:17:08;;;;;;;25.25;23.17;;;15.40;99.90;;;;;;6239994;23;20099;-81
2023/08/24 02:19:34;;;;;;;26.80;24.58;;;15.40;99.90;;;;;;6240266;23;20015;-81
2023/08/24 02:22:00;;;;;;;30.70;27.98;;;15.40;99.90;;;;;;6241609;22;20019;-81
2023/08/24 02:24:26;;;;;;;24.40;22.38;;;15.40;99.90;;;;;;6240228;23;20016;-81
2023/08/24 02:26:51;;;;;;;30.88;28.10;;;15.50;99.90;;;;;;6215054;23;20015;-81
2023/08/24 02:29:18;;;;;;;27.13;24.80;;;15.40;99.90;;;;;;6214602;23;20062;-81
2023/08/24 02:31:44;;;;;;;27.95;25.25;;;15.40;99.90;;;;;;6240282;23;20012;-81
2023/08/24 02:34:09;;;;;;;28.23;25.63;;;15.40;99.90;;;;;;6239866;23;20012;-81
2023/08/24 02:36:35;;;;;;;28.33;25.90;;;15.30;99.90;;;;;;6239139;23;20019;-81
2023/08/24 02:39:01;;;;;;;27.40;24.88;;;15.30;99.90;;;;;;6214484;23;20342;-81
2023/08/24 02:41:27;;;;;;;28.92;26.02;;;15.30;99.90;;;;;;6239664;23;20016;-81
2023/08/24 02:43:53;;;;;;;27.73;25.17;;;15.30;99.90;;;;;;6239973;23;20028;-81
2023/08/24 02:46:21;;;;;;;24.13;21.98;;;15.30;99.90;;;;;;6239643;23;20016;-81
2023/08/24 02:48:46;;;;;;;21.92;19.70;;;15.30;99.90;;;;;;6240149;23;20083;-81
2023/08/24 02:51:13;;;;;;;26.58;24.20;;;15.40;99.90;;;;;;6239199;23;20039;-81
2023/08/24 02:53:39;;;;;;;25.33;23.10;;;15.30;99.90;;;;;;6241782;23;20009;-81
2023/08/24 02:56:05;;;;;;;28.50;26.10;;;15.30;99.90;;;;;;6239703;23;20465;-81
2023/08/24 02:58:31;;;;;;;24.27;21.98;;;15.30;99.90;;;;;;6241301;22;20012;-81
2023/08/24 03:00:57;;;;;;;25.23;22.63;;;15.40;99.90;;;;;;6241403;22;20407;-81
2023/08/24 03:03:24;;;;;;;27.05;24.48;;;15.40;99.90;;;;;;6241567;22;20046;-80
2023/08/24 03:06:04;;;;;;;26.55;24.05;;;15.40;99.90;;;;;;6213393;23;20016;-81
2023/08/24 03:08:32;;;;;;;24.48;21.85;;;15.40;99.90;;;;;;6241503;22;20008;-81
2023/08/24 03:10:59;;;;;;;28.85;26.38;;;15.40;99.90;;;;;;6241684;22;20012;-82
2023/08/24 03:13:25;;;;;;;23.80;21.48;;;15.40;99.90;;;;;;6214344;23;20058;-81
2023/08/24 03:15:52;;;;;;;25.85;23.27;;;15.40;99.90;;;;;;6241086;22;20020;-81
2023/08/24 03:18:18;;;;;;;26.30;23.98;;;15.40;99.90;;;;;;6214208;23;20066;-81
2023/08/24 03:20:46;;;;;;;24.65;22.30;;;15.40;99.90;;;;;;6238696;23;20023;-81
2023/08/24 03:23:11;;;;;;;26.90;24.60;;;15.40;99.90;;;;;;6214405;23;20316;-81
2023/08/24 03:25:39;;;;;;;28.08;21.40;;;15.30;99.90;;;;;;6239519;23;20015;-81
2023/08/24 03:28:09;;;;;;;23.52;21.23;;;15.30;99.90;;;;;;6239505;23;20058;-81
2023/08/24 03:30:36;;;;;;;27.00;24.73;;;15.30;99.90;;;;;;6213774;23;20023;-80
2023/08/24 03:33:03;;;;;;;22.17;19.58;;;15.30;99.90;;;;;;6238821;23;20086;-81
2023/08/24 03:35:32;;;;;;;21.70;19.27;;;15.20;99.90;;;;;;6214169;23;20224;-81
2023/08/24 03:37:58;;;;;;;25.95;23.88;;;15.30;99.90;;;;;;6213996;23;20008;-81
2023/08/24 03:40:24;;;;;;;27.02;23.83;;;15.20;99.90;;;;;;6214418;23;20130;-81
2023/08/24 03:42:50;;;;;;;25.98;23.92;;;15.20;99.90;;;;;;6239207;23;20020;-81
2023/08/24 03:45:16;;;;;;;26.63;24.10;;;15.20;99.90;;;;;;6238893;23;20447;-81
2023/08/24 03:47:42;;;;;;;25.23;22.92;;;15.20;99.90;;;;;;6239228;23;20008;-82
2023/08/24 03:50:08;;;;;;;24.23;21.73;;;15.10;99.90;;;;;;6213918;23;20092;-81
2023/08/24 03:52:34;;;;;;;27.20;24.52;;;15.10;99.90;;;;;;6214047;23;20004;-81
2023/08/24 03:54:59;;;;;;;23.38;21.17;;;15.20;99.90;;;;;;6241079;23;20513;-81
2023/08/24 03:57:25;;;;;;;28.42;26.17;;;15.10;99.90;;;;;;6213939;23;20023;-81
2023/08/24 03:59:50;;;;;;;27.02;24.80;;;15.20;99.90;;;;;;6239213;23;20474;-81
2023/08/24 04:02:16;;;;;;;27.77;25.23;;;15.10;99.90;;;;;;6213340;23;20016;-81
2023/08/24 04:04:42;;;;;;;25.92;23.83;;;15.10;99.90;;;;;;6213841;23;20032;-82
2023/08/24 04:07:08;;;;;;;24.73;22.25;;;15.10;99.90;;;;;;6243927;23;20020;-81
2023/08/24 04:09:33;;;;;;;26.27;23.88;;;15.00;99.90;;;;;;6239142;23;20019;-82
2023/08/24 04:11:59;;;;;;;27.50;25.20;;;15.00;99.90;;;;;;6239400;23;20015;-81
2023/08/24 04:14:24;;;;;;;25.27;22.83;;;15.00;99.90;;;;;;6213809;23;20142;-81
2023/08/24 04:16:50;;;;;;;25.92;23.73;;;15.00;99.90;;;;;;6213707;23;20008;-82
2023/08/24 04:19:16;;;;;;;26.60;23.98;;;15.00;99.90;;;;;;6214181;23;20016;-82
2023/08/24 04:21:42;;;;;;;26.33;24.02;;;15.00;99.90;;;;;;6214034;23;20077;-82
2023/08/24 04:24:08;;;;;;;25.20;22.88;;;15.00;99.90;;;;;;6239108;23;20099;-82
2023/08/24 04:26:33;;;;;;;24.85;22.42;;;15.00;99.90;;;;;;6241119;23;20012;-81
2023/08/24 04:28:59;;;;;;;25.20;22.92;;;14.90;99.90;;;;;;6239229;23;20344;-81
2023/08/24 04:31:24;;;;;;;28.35;25.70;;;14.90;99.90;;;;;;6238844;23;20087;-81
2023/08/24 04:33:50;;;;;;;28.00;25.30;;;15.00;99.90;;;;;;6239475;23;20386;-82
2023/08/24 04:36:16;;;;;;;30.83;27.60;;;15.00;99.90;;;;;;6239452;23;20073;-82
2023/08/24 04:38:41;;;;;;;26.23;23.77;;;15.10;99.90;;;;;;6239224;23;20012;-82
2023/08/24 04:41:09;;;;;;;26.65;23.50;;;15.10;99.90;;;;;;6239426;23;20433;-82
2023/08/24 04:43:36;;;;;;;28.45;25.63;;;15.10;99.90;;;;;;6243149;22;20138;-82
2023/08/24 04:46:02;;;;;;;31.50;28.33;;;15.20;99.90;;;;;;6240702;23;20385;-82
2023/08/24 04:48:32;;;;;;;31.90;28.15;;;15.20;99.90;;;;;;6241545;23;20642;-81
2023/08/24 04:50:58;;;;;;;33.28;27.23;;;15.30;99.90;;;;;;6215982;23;20008;-82
2023/08/24 04:53:25;;;;;;;33.55;30.20;;;15.20;99.90;;;;;;6241320;23;20014;-82
2023/08/24 04:55:51;;;;;;;30.00;27.00;;;15.30;99.90;;;;;;6216066;23;20019;-81
2023/08/24 04:58:17;;;;;;;27.63;24.83;;;15.30;99.90;;;;;;6215825;23;20020;-81
2023/08/24 05:00:42;;;;;;;29.35;26.38;;;15.30;99.90;;;;;;6240741;23;20016;-81
2023/08/24 05:03:08;;;;;;;31.77;28.45;;;15.30;99.90;;;;;;6216186;23;20008;-81
2023/08/24 05:05:35;;;;;;;35.15;31.75;;;15.30;99.90;;;;;;6242948;23;20022;-82
2023/08/24 05:08:03;;;;;;;28.58;25.33;;;15.40;99.90;;;;;;6216136;23;20047;-81
2023/08/24 05:10:33;;;;;;;30.33;24.95;;;15.30;99.90;;;;;;6216237;23;20023;-82
2023/08/24 05:12:59;;;;;;;37.38;33.83;;;15.30;99.90;;;;;;6241288;23;20106;-82
2023/08/24 05:15:26;;;;;;;31.75;28.50;;;15.40;99.90;;;;;;6215485;23;20073;-81
2023/08/24 05:17:59;;;;;;;31.02;28.08;;;15.40;99.90;;;;;;6241625;23;20016;-82
2023/08/24 05:20:25;;;;;;;28.73;26.05;;;15.40;99.90;;;;;;6241085;23;20127;-82
2023/08/24 05:22:51;;;;;;;26.55;24.10;;;15.40;99.90;;;;;;6241339;23;20510;-81
2023/08/24 05:25:17;;;;;;;29.25;26.52;;;15.40;99.90;;;;;;6241032;23;20004;-82
2023/08/24 05:27:43;;;;;;;26.73;24.17;;;15.40;99.90;;;;;;6215853;23;20022;-82
2023/08/24 05:30:10;;;;;;;29.40;26.60;;;15.40;99.90;;;;;;6240631;23;20087;-81
2023/08/24 05:32:38;;;;;;;26.77;24.20;;;15.40;99.90;;;;;;6241027;23;20605;-82
2023/08/24 05:35:05;;;;;;;27.35;24.30;;;15.40;99.90;;;;;;6240909;23;20016;-82
2023/08/24 05:37:31;;;;;;;28.33;25.73;;;15.40;99.90;;;;;;6240810;23;20012;-81
2023/08/24 05:39:56;;;;;;;26.45;23.83;;;15.40;99.90;;;;;;6241852;23;20027;-82
2023/08/24 05:42:22;;;;;;;25.70;23.08;;;15.50;99.90;;;;;;6240519;23;20015;-82
2023/08/24 05:44:48;;;;;;;25.52;23.10;;;15.10;99.90;;;;;;6214516;23;20106;-81
2023/08/24 05:47:13;;;;;;;25.83;23.40;;;15.40;99.90;;;;;;6242369;23;20083;-82
2023/08/24 05:49:39;;;;;;;27.67;22.38;;;15.60;99.90;;;;;;6215172;23;20064;-82
2023/08/24 05:52:05;;;;;;;25.25;22.65;;;15.80;99.90;;;;;;6243059;22;20012;-82
2023/08/24 05:54:31;;;;;;;23.77;21.42;;;16.10;99.90;;;;;;6216825;23;20054;-81
2023/08/24 05:57:00;;;;;;;21.70;18.30;;;16.70;99.90;;;;;;6239590;23;20019;-82
2023/08/24 05:59:26;;;;;;;21.80;18.00;;;16.90;99.90;;;;;;6238990;23;20094;-82
2023/08/24 06:01:52;;;;;;;20.10;18.05;;;18.20;99.90;;;;;;6242153;22;20012;-83
2023/08/24 06:04:18;;;;;;;20.02;16.85;;;19.20;99.90;;;;;;6242422;22;20012;-82
2023/08/24 06:06:44;;;;;;;18.38;16.50;;;20.20;99.90;;;;;;6240429;23;20390;-83
2023/08/24 06:09:10;;;;;;;15.95;13.70;;;21.20;99.90;;;;;;6241784;22;20013;-82
2023/08/24 06:11:36;;;;;;;17.98;15.82;;;21.90;99.90;;;;;;6241801;22;20008;-82
2023/08/24 06:14:02;;;;;;;18.30;16.75;;;22.60;99.90;;;;;;6240985;23;20048;-83
2023/08/24 06:16:28;;;;;;;14.82;13.38;;;23.30;99.90;;;;;;6214679;23;20458;-83
2023/08/24 06:18:54;;;;;;;14.95;13.55;;;23.90;99.90;;;;;;6240154;23;20012;-83
2023/08/24 06:21:20;;;;;;;20.77;18.77;;;24.20;99.90;;;;;;6239910;23;20036;-82
2023/08/24 06:23:47;;;;;;;17.33;15.63;;;24.20;99.90;;;;;;6239735;23;20020;-83
2023/08/24 06:26:13;;;;;;;20.50;18.83;;;24.60;99.90;;;;;;6240290;23;20362;-82
2023/08/24 06:28:39;;;;;;;17.42;15.88;;;24.80;99.90;;;;;;6241106;22;20008;-83
2023/08/24 06:31:07;;;;;;;21.40;19.50;;;25.20;99.90;;;;;;6241930;22;20138;-83
2023/08/24 06:33:34;;;;;;;14.82;13.43;;;24.90;99.90;;;;;;6240056;23;20040;-83
2023/08/24 06:36:00;;;;;;;17.63;16.13;;;25.20;99.90;;;;;;6239334;23;20019;-82
2023/08/24 06:38:26;;;;;;;14.60;13.23;;;25.20;99.90;;;;;;6239633;23;20012;-82
2023/08/24 06:40:52;;;;;;;85.00;78.90;;;25.10;99.90;;;;;;6241408;23;20055;-82
2023/08/24 06:43:17;;;;;;;229.18;210.80;;;25.50;99.90;;;;;;6240380;22;20009;-82
2023/08/24 06:45:46;;;;;;;433.80;397.45;;;25.70;99.90;;;;;;6239411;23;20355;-82
2023/08/24 06:48:12;;;;;;;315.40;282.42;;;25.80;99.90;;;;;;6239429;23;20012;-82
2023/08/24 06:50:38;;;;;;;452.10;413.42;;;26.00;99.90;;;;;;6239304;23;20389;-82
2023/08/24 06:53:04;;;;;;;634.50;579.78;;;26.30;99.90;;;;;;6239543;23;20012;-82
2023/08/24 06:55:30;;;;;;;424.85;381.67;;;26.20;99.90;;;;;;6239660;23;20012;-82
2023/08/24 06:57:56;;;;;;;267.77;240.57;;;25.30;99.90;;;;;;6238628;23;20030;-84
2023/08/24 07:00:22;;;;;;;259.65;229.35;;;24.60;99.90;;;;;;6241968;22;20012;-82
2023/08/24 07:02:49;;;;;;;264.90;228.98;;;23.60;99.90;;;;;;6239418;23;20008;-82
2023/08/24 07:05:18;;;;;;;139.63;126.32;;;23.10;99.90;;;;;;6240309;22;20458;-82
2023/08/24 07:07:47;;;;;;;122.18;110.65;;;22.60;99.90;;;;;;6213946;23;20022;-82
2023/08/24 07:10:13;;;;;;;92.32;84.75;;;22.20;99.90;;;;;;6239426;23;20039;-82
2023/08/24 07:12:41;;;;;;;71.85;65.82;;;21.90;99.90;;;;;;6240337;22;20447;-82
2023/08/24 07:15:11;;;;;;;41.83;38.58;;;21.60;99.90;;;;;;6240917;23;20091;-82
2023/08/24 07:17:36;;;;;;;37.60;34.50;;;21.40;99.90;;;;;;6239597;23;20500;-84
2023/08/24 07:20:08;;;;;;;29.35;26.95;;;21.60;99.90;;;;;;6238839;23;20091;-81
2023/08/24 07:22:34;;;;;;;23.83;21.55;;;21.20;99.90;;;;;;6238955;23;20048;-82
2023/08/24 07:25:01;;;;;;;21.67;20.10;;;21.10;99.90;;;;;;6240017;22;20023;-82
2023/08/24 07:27:28;;;;;;;19.60;17.90;;;21.10;99.90;;;;;;6237672;23;20474;-82
2023/08/24 07:29:54;;;;;;;18.52;16.90;;;20.90;99.90;;;;;;6238901;22;20031;-81
2023/08/24 07:32:19;;;;;;;21.95;20.27;;;20.90;99.90;;;;;;6237167;23;20016;-82
2023/08/24 07:34:45;;;;;;;23.02;20.98;;;20.90;99.90;;;;;;6238829;23;20020;-81
2023/08/24 07:37:11;;;;;;;22.30;20.55;;;20.90;99.90;;;;;;6237374;23;20099;-82
2023/08/24 07:39:41;;;;;;;22.13;20.02;;;20.90;99.90;;;;;;6237079;23;20023;-82
2023/08/24 07:42:07;;;;;;;23.27;21.23;;;21.00;99.90;;;;;;6211766;23;20027;-82
2023/08/24 07:44:32;;;;;;;19.05;17.30;;;21.00;99.90;;;;;;6240164;23;20016;-82
2023/08/24 07:46:58;;;;;;;22.63;20.60;;;21.10;99.90;;;;;;6238462;23;20073;-82
2023/08/24 07:49:24;;;;;;;23.73;21.65;;;21.30;99.90;;;;;;6240583;23;20364;-82
2023/08/24 07:51:49;;;;;;;24.05;21.90;;;21.40;99.90;;;;;;6238692;23;20015;-82
2023/08/24 07:54:15;;;;;;;18.85;17.13;;;21.40;99.90;;;;;;6239631;23;20016;-82
2023/08/24 07:56:42;;;;;;;18.27;16.55;;;21.20;99.90;;;;;;6239075;23;20008;-82
2023/08/24 07:59:07;;;;;;;20.55;18.58;;;21.20;99.90;;;;;;6240133;22;20040;-81
2023/08/24 08:01:33;;;;;;;20.70;18.80;;;21.30;99.90;;;;;;6238550;23;20019;-81
2023/08/24 08:04:00;;;;;;;20.38;18.20;;;21.30;99.90;;;;;;6238743;23;20019;-82
2023/08/24 08:06:26;;;;;;;21.15;19.27;;;21.40;99.90;;;;;;6238163;23;20024;-82
2023/08/24 08:08:52;;;;;;;16.92;15.18;;;21.50;99.90;;;;;;6237888;23;20469;-82
2023/08/24 08:11:18;;;;;;;19.27;17.55;;;21.60;99.90;;;;;;6238158;23;20374;-82
2023/08/24 08:13:44;;;;;;;23.20;21.38;;;22.10;99.90;;;;;;6238528;23;20066;-82
2023/08/24 08:16:10;;;;;;;27.40;25.05;;;23.10;99.90;;;;;;6237943;23;20012;-82
2023/08/24 08:18:36;;;;;;;28.02;25.52;;;24.20;99.90;;;;;;6238640;23;20023;-82
2023/08/24 08:21:11;;;;;;;46.53;43.40;;;25.00;99.90;;;;;;6238544;23;20158;-82
2023/08/24 08:23:37;;;;;;;52.85;49.38;;;25.60;99.90;;;;;;6212660;23;20020;-82
2023/08/24 08:26:02;;;;;;;126.78;118.50;;;26.10;99.90;;;;;;6238825;23;20016;-82
2023/08/24 08:28:28;;;;;;;223.55;208.60;;;26.40;99.90;;;;;;6213009;23;20110;-82
2023/08/24 08:30:54;;;;;;;579.92;535.03;;;26.40;99.90;;;;;;6240107;23;20009;-82
2023/08/24 08:33:21;;;;;;;703.85;647.17;;;26.20;99.90;;;;;;6238902;23;20370;-82
2023/08/24 08:35:47;;;;;;;435.88;401.52;;;25.80;99.90;;;;;;6213068;23;20016;-82
2023/08/24 08:38:13;;;;;;;371.05;340.63;;;24.80;99.90;;;;;;6237874;23;20091;-83
2023/08/24 08:40:41;;;;;;;528.53;486.35;;;24.40;99.90;;;;;;6240016;22;20016;-82
2023/08/24 08:43:06;;;;;;;599.50;546.65;;;24.30;99.90;;;;;;6238402;23;20031;-82
2023/08/24 08:45:32;;;;;;;754.15;687.25;;;24.20;99.90;;;;;;6240052;23;20012;-82
2023/08/24 08:48:00;;;;;;;918.88;838.47;;;24.00;99.90;;;;;;6240340;22;20046;-81
2023/08/24 08:50:27;;;;;;;931.05;842.88;;;24.00;99.90;;;;;;6238485;23;20494;-82
2023/08/24 08:52:52;;;;;;;509.13;465.23;;;24.00;99.90;;;;;;6239883;22;20092;-82
2023/08/24 08:55:19;;;;;;;953.67;854.60;;;23.90;99.90;;;;;;6238243;23;20055;-82
2023/08/24 08:57:49;;;;;;;860.42;775.65;;;24.00;99.90;;;;;;6240170;22;20020;-81
2023/08/24 09:00:16;;;;;;;837.00;760.88;;;23.90;99.90;;;;;;6238545;23;20004;-82
2023/08/24 09:02:47;;;;;;;949.78;859.08;;;24.10;99.90;;;;;;6238590;23;20015;-82
2023/08/24 09:05:14;;;;;;;1138.60;999.90;;;24.60;99.90;;;;;;6240187;22;20087;-82
2023/08/24 09:07:41;;;;;;;1121.00;999.90;;;24.90;99.90;;;;;;6237602;23;20386;-82
2023/08/24 09:10:07;;;;;;;1166.97;999.90;;;24.90;99.90;;;;;;6238306;23;20165;-82
2023/08/24 09:12:34;;;;;;;1173.43;999.90;;;25.00;99.90;;;;;;6238375;23;20087;-82
2023/08/24 09:15:00;;;;;;;1130.70;995.65;;;25.20;99.90;;;;;;6238019;23;20172;-82
2023/08/24 09:17:26;;;;;;;1305.53;999.90;;;25.30;99.90;;;;;;6240480;23;20016;-81
2023/08/24 09:19:57;;;;;;;1339.60;999.90;;;25.30;99.90;;;;;;6239951;22;20019;-81
2023/08/24 09:22:23;;;;;;;1423.00;999.90;;;25.30;99.90;;;;;;6238117;23;20327;-81
2023/08/24 09:24:54;;;;;;;1094.75;982.47;;;25.10;99.90;;;;;;6240172;23;20012;-81
2023/08/24 09:27:21;;;;;;;1193.95;999.90;;;25.00;99.90;;;;;;6238352;23;20202;-81
2023/08/24 09:29:53;;;;;;;568.58;519.78;;;24.90;99.90;;;;;;6240367;23;20038;-81
2023/08/24 09:32:27;;;;;;;1077.65;970.75;;;24.80;99.90;;;;;;6240321;23;20427;-81
2023/08/24 09:34:53;;;;;;;1032.05;908.83;;;24.60;99.90;;;;;;6239962;23;20437;-81
2023/08/24 09:37:19;;;;;;;1235.32;999.90;;;24.50;99.90;;;;;;6239378;23;20044;-82
2023/08/24 09:39:45;;;;;;;774.28;699.35;;;24.40;99.90;;;;;;6239934;23;20089;-82
2023/08/24 09:42:12;;;;;;;638.58;578.67;;;24.40;99.90;;;;;;6239877;23;20050;-82
2023/08/24 09:44:38;;;;;;;840.00;757.17;;;24.30;99.90;;;;;;6214882;23;20340;-82
2023/08/24 09:47:10;;;;;;;803.08;727.78;;;24.20;99.90;;;;;;6242037;23;20107;-81
2023/08/24 09:49:36;;;;;;;;;;;24.20;99.90;;;;;;6240784;23;20462;-81
2023/08/24 09:52:06;;;;;;;1031.60;933.00;;;24.20;99.90;;;;;;6238885;23;19911;-81
2023/08/24 09:54:33;;;;;;;761.65;682.03;;;24.20;99.90;;;;;;6214440;23;20004;-82
2023/08/24 09:57:02;;;;;;;643.20;582.63;;;24.10;99.90;;;;;;6241682;22;20401;-81
2023/08/24 09:59:31;;;;;;;954.83;850.17;;;24.20;99.90;;;;;;6239853;23;20012;-81
2023/08/24 10:02:00;;;;;;;598.03;547.40;;;24.10;99.90;;;;;;6240008;23;20019;-81
2023/08/24 10:04:28;;;;;;;1094.85;983.03;;;24.10;99.90;;;;;;6241360;22;20053;-81
2023/08/24 10:07:07;;;;;;;740.97;674.92;;;24.10;99.90;;;;;;6241681;22;20099;-81
2023/08/24 10:09:40;;;;;;;1082.47;966.90;;;24.10;99.90;;;;;;6241674;22;20008;-81
2023/08/24 10:12:07;;;;;;;819.63;745.38;;;24.10;99.90;;;;;;6241423;23;20066;-82
2023/08/24 10:14:44;;;;;;;465.30;426.35;;;24.00;99.90;;;;;;6241396;22;20457;-81
2023/08/24 10:17:11;;;;;;;416.38;381.95;;;23.90;99.90;;;;;;6239775;23;20469;-82
2023/08/24 10:19:37;;;;;;;409.65;375.95;;;23.80;99.90;;;;;;6241096;23;20008;-82
2023/08/24 10:22:05;;;;;;;843.92;771.35;;;23.80;99.90;;;;;;6239864;23;20012;-82
2023/08/24 10:24:32;;;;;;;496.00;451.85;;;23.80;99.90;;;;;;6239215;23;20600;-81
2023/08/24 10:26:59;;;;;;;504.08;463.50;;;23.90;99.90;;;;;;6239954;23;20027;-81
2023/08/24 10:29:28;;;;;;;299.98;275.65;;;23.70;99.90;;;;;;6241094;22;20095;-81
2023/08/24 10:31:54;;;;;;;353.63;324.65;;;23.70;99.90;;;;;;6241236;23;20039;-81
2023/08/24 10:34:20;;;;;;;213.98;196.77;;;23.60;99.90;;;;;;6214156;23;20012;-81
2023/08/24 10:36:48;;;;;;;391.08;361.15;;;23.60;99.90;;;;;;6241262;23;20533;-81
2023/08/24 10:39:15;;;;;;;210.20;194.40;;;23.50;99.90;;;;;;6240829;22;20439;-81
2023/08/24 10:41:48;;;;;;;286.67;265.75;;;23.50;99.90;;;;;;6238998;23;20012;-82
2023/08/24 10:44:37;;;;;;;127.18;117.30;;;23.50;99.90;;;;;;6240991;22;20605;-82
2023/08/24 10:47:23;;;;;;;139.05;129.23;;;23.50;99.90;;;;;;6240126;23;20087;-84
2023/08/24 10:49:57;;;;;;;129.32;120.32;;;23.40;99.90;;;;;;6242774;23;20015;-81
2023/08/24 10:52:24;;;;;;;111.00;103.07;;;23.40;99.90;;;;;;6241365;22;20416;-80
2023/08/24 10:54:51;;;;;;;102.32;95.38;;;23.30;99.90;;;;;;6239122;23;20023;-81
2023/08/24 10:57:34;;;;;;;103.85;95.95;;;23.20;99.90;;;;;;6239454;23;20008;-81
2023/08/24 11:00:05;;;;;;;60.37;56.20;;;23.20;99.90;;;;;;6240652;23;20023;-81
2023/08/24 11:02:43;;;;;;;95.00;88.88;;;23.20;99.90;;;;;;6238711;23;20562;-81
2023/08/24 11:05:21;;;;;;;109.70;101.93;;;23.20;99.90;;;;;;6241309;22;20015;-82
2023/08/24 11:07:55;;;;;;;62.75;58.58;;;23.20;99.90;;;;;;6239154;23;20062;-81
2023/08/24 11:10:22;;;;;;;73.90;68.97;;;23.30;99.90;;;;;;6239488;23;20019;-81
2023/08/24 11:13:03;;;;;;;77.20;72.20;;;23.40;99.90;;;;;;6239752;23;20312;-81
2023/08/24 11:15:57;;;;;;;73.68;68.78;;;23.40;99.90;;;;;;6241272;23;20031;-81
2023/08/24 11:18:28;;;;;;;118.32;110.47;;;23.50;99.90;;;;;;6238901;23;20435;-81
2023/08/24 11:21:03;;;;;;;197.10;184.05;;;23.60;99.90;;;;;;6239407;23;20016;-81
2023/08/24 11:23:29;;;;;;;256.27;238.70;;;23.70;99.90;;;;;;6240801;22;20338;-82
2023/08/24 11:25:57;;;;;;;110.47;103.13;;;23.90;99.90;;;;;;6240716;22;20016;-82
2023/08/24 11:28:25;;;;;;;121.43;112.93;;;24.00;99.90;;;;;;6240959;22;20376;-81
2023/08/24 11:30:51;;;;;;;155.02;144.05;;;24.20;99.90;;;;;;6239380;23;20017;-82
2023/08/24 11:33:30;;;;;;;262.55;244.50;;;24.40;99.90;;;;;;6240808;22;20004;-82
2023/08/24 11:35:57;;;;;;;189.23;176.15;;;24.50;99.90;;;;;;6240868;22;20018;-82
2023/08/24 11:38:22;;;;;;;263.33;244.88;;;24.60;99.90;;;;;;6238493;23;20012;-82
2023/08/24 11:40:48;;;;;;;176.75;163.20;;;24.60;99.90;;;;;;6238763;23;20443;-82
2023/08/24 11:43:28;;;;;;;136.77;126.28;;;24.60;99.90;;;;;;6238650;23;20012;-82
2023/08/24 11:45:55;;;;;;;249.00;229.18;;;24.70;99.90;;;;;;6240248;22;20016;-82
2023/08/24 11:48:29;;;;;;;199.15;185.43;;;24.80;99.90;;;;;;6240301;22;20008;-82
2023/08/24 11:50:55;;;;;;;509.45;470.33;;;24.80;99.90;;;;;;6238335;23;20008;-82
2023/08/24 11:53:21;;;;;;;565.65;520.70;;;24.80;99.90;;;;;;6238637;23;20014;-82
2023/08/24 11:55:47;;;;;;;440.48;406.95;;;24.80;99.90;;;;;;6238541;23;20016;-81
2023/08/24 11:58:16;;;;;;;821.47;743.97;;;25.00;99.90;;;;;;6241084;22;20012;-82
2023/08/24 12:00:43;;;;;;;790.70;716.70;;;25.10;99.90;;;;;;6239455;23;20011;-83
2023/08/24 12:03:09;;;;;;;1387.80;996.42;;;25.30;99.90;;;;;;6240102;23;20339;-83
2023/08/24 12:05:35;;;;;;;1999.90;999.90;;;25.40;99.90;;;;;;6241871;23;20016;-83
2023/08/24 12:08:01;;;;;;;1282.35;999.90;;;25.40;99.90;;;;;;6242776;22;20016;-83
2023/08/24 12:10:27;;;;;;;1471.80;999.90;;;25.40;99.90;;;;;;6214840;23;20126;-83
2023/08/24 12:13:05;;;;;;;1745.47;999.90;;;25.40;99.90;;;;;;6240217;23;20400;-82
2023/08/24 12:15:35;;;;;;;1301.97;999.90;;;25.40;99.90;;;;;;6240439;23;20012;-83
2023/08/24 12:18:10;;;;;;;1292.90;993.00;;;25.40;99.90;;;;;;6236446;23;20042;-83
2023/08/24 12:20:36;;;;;;;1017.47;902.47;;;25.30;99.90;;;;;;6239145;23;20023;-82
2023/08/24 12:23:03;;;;;;;1542.82;999.90;;;25.30;99.90;;;;;;6237726;23;20020;-82